sensor_id;sensor_type;location;lat;lon;timestamp;pressure;altitude;pressure_sealevel;temperature;humidity
12073;BME280;6098;49.004;8.372;2022-09-29T00:03:46;98895.22;;;9.65;90.76
12073;BME280;6098;49.004;8.372;2022-09-29T00:18:36;98885.41;;;9.52;91.20
12073;BME280;6098;49.004;8.372;2022-09-29T00:33:29;98878.68;;;9.46;90.72
12073;BME280;6098;49.004;8.372;2022-09-29T00:48:19;98872.63;;;9.44;91.28
12073;BME280;6098;49.004;8.372;2022-09-29T01:03:10;98863.92;;;9.42;90.79
12073;BME280;6098;49.004;8.372;2022-09-29T01:17:59;98870.30;;;9.54;92.26
12073;BME280;6098;49.004;8.372;2022-09-29T01:32:56;98872.83;;;9.63;93.36
12073;BME280;6098;49.004;8.372;2022-09-29T01:47:52;98871.34;;;9.65;93.93
12073;BME280;6098;49.004;8.372;2022-09-29T02:02:45;98878.61;;;9.62;94.05
12073;BME280;6098;49.004;8.372;2022-09-29T02:17:36;98878.57;;;9.56;93.77
12073;BME280;6098;49.004;8.372;2022-09-29T02:32:26;98876.75;;;9.56;94.07
12073;BME280;6098;49.004;8.372;2022-09-29T03:02:39;98875.06;;;9.40;93.00
12073;BME280;6098;49.004;8.372;2022-09-29T03:17:29;98865.96;;;9.37;93.45
12073;BME280;6098;49.004;8.372;2022-09-29T03:32:20;98851.85;;;9.38;93.17
12073;BME280;6098;49.004;8.372;2022-09-29T03:47:11;98854.46;;;9.38;93.47
12073;BME280;6098;49.004;8.372;2022-09-29T04:02:04;98855.05;;;9.36;93.31
12073;BME280;6098;49.004;8.372;2022-09-29T04:16:58;98865.34;;;9.41;94.18
12073;BME280;6098;49.004;8.372;2022-09-29T04:31:50;98873.28;;;9.41;94.06
12073;BME280;6098;49.004;8.372;2022-09-29T04:46:41;98878.84;;;9.36;93.95
12073;BME280;6098;49.004;8.372;2022-09-29T05:01:42;98894.80;;;9.34;94.37
12073;BME280;6098;49.004;8.372;2022-09-29T05:16:33;98898.65;;;9.36;94.89
12073;BME280;6098;49.004;8.372;2022-09-29T05:31:25;98903.63;;;9.42;94.75
12073;BME280;6098;49.004;8.372;2022-09-29T05:46:13;98915.42;;;9.51;94.91
12073;BME280;6098;49.004;8.372;2022-09-29T06:01:05;98916.95;;;9.55;94.24
12073;BME280;6098;49.004;8.372;2022-09-29T06:15:57;98914.97;;;9.66;94.56
12073;BME280;6098;49.004;8.372;2022-09-29T06:30:47;98911.33;;;9.83;93.73
12073;BME280;6098;49.004;8.372;2022-09-29T06:45:38;98923.44;;;10.09;93.56
12073;BME280;6098;49.004;8.372;2022-09-29T07:00:30;98940.59;;;10.39;93.64
12073;BME280;6098;49.004;8.372;2022-09-29T07:15:22;98940.05;;;10.56;92.82
12073;BME280;6098;49.004;8.372;2022-09-29T07:30:13;98942.45;;;10.73;91.45
12073;BME280;6098;49.004;8.372;2022-09-29T07:45:05;98954.46;;;11.00;90.38
12073;BME280;6098;49.004;8.372;2022-09-29T07:59:58;98955.17;;;11.30;88.27
12073;BME280;6098;49.004;8.372;2022-09-29T08:14:51;98963.94;;;11.72;87.06
12073;BME280;6098;49.004;8.372;2022-09-29T08:29:42;98970.66;;;12.03;84.77
12073;BME280;6098;49.004;8.372;2022-09-29T08:44:42;98985.34;;;12.28;82.86
12073;BME280;6098;49.004;8.372;2022-09-29T08:59:35;99005.47;;;12.64;81.94
12073;BME280;6098;49.004;8.372;2022-09-29T09:29:36;99023.85;;;12.98;81.78
12073;BME280;6098;49.004;8.372;2022-09-29T09:44:32;99023.69;;;13.32;82.27
12073;BME280;6098;49.004;8.372;2022-09-29T10:14:28;99021.55;;;13.73;79.19
12073;BME280;6098;49.004;8.372;2022-09-29T10:44:36;99021.56;;;14.03;77.50
12073;BME280;6098;49.004;8.372;2022-09-29T10:59:26;99014.12;;;14.19;74.16
12073;BME280;6098;49.004;8.372;2022-09-29T12:14:49;99022.24;;;15.09;71.24
12073;BME280;6098;49.004;8.372;2022-09-29T14:00:19;99045.52;;;14.91;67.11
12073;BME280;6098;49.004;8.372;2022-09-29T14:15:10;99044.94;;;14.81;69.34
12073;BME280;6098;49.004;8.372;2022-09-29T14:30:11;99060.88;;;14.93;69.69
12073;BME280;6098;49.004;8.372;2022-09-29T14:45:06;99075.55;;;14.93;67.68
12073;BME280;6098;49.004;8.372;2022-09-29T15:00:21;99082.14;;;14.94;65.53
12073;BME280;6098;49.004;8.372;2022-09-29T15:15:35;99083.44;;;15.00;65.30
12073;BME280;6098;49.004;8.372;2022-09-29T15:30:29;99094.24;;;14.81;64.54
12073;BME280;6098;49.004;8.372;2022-09-29T15:45:26;99098.81;;;14.68;65.42
12073;BME280;6098;49.004;8.372;2022-09-29T16:30:16;99170.59;;;14.23;67.81
12073;BME280;6098;49.004;8.372;2022-09-29T16:44:55;99191.34;;;14.13;69.79
12073;BME280;6098;49.004;8.372;2022-09-29T16:59:44;99232.92;;;13.08;74.75
12073;BME280;6098;49.004;8.372;2022-09-29T17:14:33;99239.82;;;12.44;78.06
12073;BME280;6098;49.004;8.372;2022-09-29T17:29:23;99255.97;;;11.99;82.54
12073;BME280;6098;49.004;8.372;2022-09-29T17:44:14;99266.14;;;11.93;84.69
12073;BME280;6098;49.004;8.372;2022-09-29T17:59:06;99286.13;;;11.84;86.43
12073;BME280;6098;49.004;8.372;2022-09-29T18:13:57;99291.70;;;11.94;85.85
12073;BME280;6098;49.004;8.372;2022-09-29T18:28:49;99294.25;;;11.89;86.43
12073;BME280;6098;49.004;8.372;2022-09-29T18:43:39;99303.91;;;11.83;88.12
12073;BME280;6098;49.004;8.372;2022-09-29T18:58:31;99310.91;;;11.91;88.43
12073;BME280;6098;49.004;8.372;2022-09-29T19:13:22;99327.61;;;11.93;89.68
12073;BME280;6098;49.004;8.372;2022-09-29T19:28:14;99342.72;;;11.92;90.73
12073;BME280;6098;49.004;8.372;2022-09-29T19:43:03;99353.07;;;11.89;91.37
12073;BME280;6098;49.004;8.372;2022-09-29T19:57:54;99356.95;;;11.84;90.72
12073;BME280;6098;49.004;8.372;2022-09-29T20:12:45;99374.97;;;11.79;90.59
12073;BME280;6098;49.004;8.372;2022-09-29T20:27:37;99387.00;;;11.70;92.39
12073;BME280;6098;49.004;8.372;2022-09-29T20:42:27;99376.59;;;11.59;92.69
12073;BME280;6098;49.004;8.372;2022-09-29T20:57:18;99395.71;;;11.49;93.13
12073;BME280;6098;49.004;8.372;2022-09-29T21:12:08;99419.92;;;11.29;91.96
12073;BME280;6098;49.004;8.372;2022-09-29T21:27:00;99434.63;;;11.26;93.72
12073;BME280;6098;49.004;8.372;2022-09-29T21:41:51;99447.24;;;11.22;94.09
12073;BME280;6098;49.004;8.372;2022-09-29T21:56:42;99467.13;;;11.14;94.80
12073;BME280;6098;49.004;8.372;2022-09-29T22:11:32;99486.77;;;11.03;95.04
12073;BME280;6098;49.004;8.372;2022-09-29T22:26:22;99491.90;;;10.98;95.90
12073;BME280;6098;49.004;8.372;2022-09-29T22:41:14;99499.98;;;10.96;96.40
12073;BME280;6098;49.004;8.372;2022-09-29T22:56:13;99504.00;;;11.03;97.23
12073;BME280;6098;49.004;8.372;2022-09-29T23:11:05;99501.66;;;11.06;96.61
12073;BME280;6098;49.004;8.372;2022-09-29T23:25:56;99512.74;;;11.13;97.16
12073;BME280;6098;49.004;8.372;2022-09-29T23:40:47;99511.39;;;11.14;97.11
12073;BME280;6098;49.004;8.372;2022-09-29T23:55:38;99513.82;;;11.10;97.23
